Time;durP1;ratioP1;P1;durP2;ratioP2;P2;SDS_P1;SDS_P2;PMS_P1;PMS_P2;Temp;Humidity;BMP_temperature;BMP_pressure;BME280_temperature;BME280_humidity;BME280_pressure;Samples;Min_cycle;Max_cycle;Signal;HPM_P1;HPM_P2
2020/12/28 00:01:33;;;;;;;7.50;5.05;;;5.70;78.10;;;;;;5011616;28;20061;-81
2020/12/28 00:04:00;;;;;;;6.32;4.15;;;5.60;77.90;;;;;;4995010;28;20570;-81
2020/12/28 00:06:25;;;;;;;7.40;4.93;;;5.60;77.90;;;;;;5009476;28;20041;-81
2020/12/28 00:08:51;;;;;;;7.10;4.22;;;5.50;77.80;;;;;;4992650;28;20099;-80
2020/12/28 00:11:18;;;;;;;8.50;4.75;;;5.50;77.80;;;;;;4994404;28;20053;-82
2020/12/28 00:13:45;;;;;;;6.93;3.95;;;5.50;77.80;;;;;;4995560;28;20117;-80
2020/12/28 00:16:13;;;;;;;8.20;4.78;;;5.40;77.60;;;;;;4994716;28;20064;-87
2020/12/28 00:18:39;;;;;;;6.72;4.68;;;5.40;77.60;;;;;;5009995;28;20061;-81
2020/12/28 00:21:06;;;;;;;6.18;5.03;;;5.40;77.70;;;;;;5010201;28;20057;-82
2020/12/28 00:23:32;;;;;;;6.38;3.88;;;5.40;77.60;;;;;;5009606;28;20453;-83
2020/12/28 00:25:58;;;;;;;6.70;4.50;;;5.30;77.50;;;;;;5011174;28;20454;-81
2020/12/28 00:28:24;;;;;;;7.97;4.18;;;5.20;77.30;;;;;;5013756;28;20124;-85
2020/12/28 00:30:50;;;;;;;8.70;5.78;;;5.20;77.30;;;;;;4995722;28;20068;-84
2020/12/28 00:33:16;;;;;;;11.25;4.90;;;5.20;77.30;;;;;;5015793;28;20103;-84
2020/12/28 00:35:45;;;;;;;7.30;4.45;;;5.10;77.20;;;;;;5016029;28;20073;-83
2020/12/28 00:38:11;;;;;;;7.13;4.45;;;5.10;77.20;;;;;;5015204;28;20405;-86
2020/12/28 00:40:38;;;;;;;5.32;4.35;;;5.10;77.20;;;;;;5015211;28;20038;-85
2020/12/28 00:43:04;;;;;;;9.07;5.50;;;5.10;77.30;;;;;;5017808;28;20034;-83
2020/12/28 00:45:30;;;;;;;8.30;4.47;;;5.00;77.10;;;;;;5016633;28;20053;-85
2020/12/28 00:47:55;;;;;;;7.35;4.80;;;5.00;77.10;;;;;;5033528;28;20022;-86
2020/12/28 00:50:22;;;;;;;7.68;4.95;;;4.90;76.90;;;;;;5017360;28;20124;-85
2020/12/28 00:52:47;;;;;;;6.07;4.20;;;4.90;77.00;;;;;;4999894;28;20105;-84
2020/12/28 00:55:14;;;;;;;6.32;4.63;;;4.80;76.80;;;;;;5019574;28;20050;-86
2020/12/28 00:57:42;;;;;;;7.47;4.43;;;4.80;76.80;;;;;;5018888;28;20096;-85
2020/12/28 01:00:08;;;;;;;6.70;5.28;;;4.80;76.80;;;;;;5002953;28;20069;-88
2020/12/28 01:02:51;;;;;;;5.43;4.30;;;4.80;76.80;;;;;;5018407;28;20792;-88
2020/12/28 01:05:26;;;;;;;7.90;4.63;;;4.70;76.70;;;;;;5003667;28;20094;-89
2020/12/28 01:07:52;;;;;;;6.15;4.65;;;4.70;76.70;;;;;;5000884;28;20025;-85
2020/12/28 01:10:25;;;;;;;9.45;4.78;;;4.60;76.50;;;;;;5015263;28;20057;-85
2020/12/28 01:12:57;;;;;;;7.25;4.45;;;4.60;76.60;;;;;;4997980;28;20500;-82
2020/12/28 01:15:25;;;;;;;6.03;4.68;;;4.60;76.60;;;;;;5013179;28;20132;-82
2020/12/28 01:17:51;;;;;;;5.80;4.63;;;4.60;76.60;;;;;;5012805;28;20037;-83
2020/12/28 01:20:27;;;;;;;4.95;4.43;;;4.50;76.50;;;;;;4996943;28;20108;-82
2020/12/28 01:22:55;;;;;;;7.32;4.65;;;4.50;76.50;;;;;;5011889;28;20385;-82
2020/12/28 01:25:21;;;;;;;9.05;5.00;;;4.50;76.50;;;;;;4995455;28;20045;-82
2020/12/28 01:27:56;;;;;;;5.15;4.30;;;4.50;76.50;;;;;;5011335;28;20030;-83
2020/12/28 01:30:23;;;;;;;7.15;3.78;;;4.50;76.50;;;;;;5011254;28;20030;-81
2020/12/28 01:32:49;;;;;;;7.47;4.78;;;4.50;76.50;;;;;;4995722;28;20458;-83
2020/12/28 01:35:32;;;;;;;8.52;4.57;;;4.40;76.30;;;;;;4998852;28;20070;-83
2020/12/28 01:37:58;;;;;;;5.65;4.10;;;4.50;76.50;;;;;;5014210;28;20030;-87
2020/12/28 01:40:30;;;;;;;8.40;4.40;;;4.40;76.30;;;;;;4997989;28;20068;-84
2020/12/28 01:42:56;;;;;;;7.55;5.10;;;4.40;76.30;;;;;;4997714;28;20127;-85
2020/12/28 01:45:22;;;;;;;6.63;5.05;;;4.40;76.30;;;;;;4997518;28;20045;-86
2020/12/28 01:47:55;;;;;;;8.02;4.75;;;4.40;76.30;;;;;;5015238;28;20030;-87
2020/12/28 01:50:21;;;;;;;7.53;4.90;;;4.40;76.40;;;;;;4997335;28;20057;-84
2020/12/28 01:52:47;;;;;;;9.80;5.95;;;4.30;76.20;;;;;;4995801;28;20033;-84
2020/12/28 01:55:13;;;;;;;8.20;5.40;;;4.30;76.20;;;;;;4996073;28;20160;-84
2020/12/28 01:57:52;;;;;;;6.80;5.43;;;4.30;76.20;;;;;;4997964;28;20030;-84
2020/12/28 02:00:19;;;;;;;7.55;5.40;;;4.30;76.20;;;;;;4996760;28;20081;-83
2020/12/28 02:02:55;;;;;;;8.68;5.75;;;4.30;76.20;;;;;;5012865;28;20053;-83
2020/12/28 02:05:37;;;;;;;9.80;6.13;;;4.30;76.30;;;;;;4998116;28;20042;-80
2020/12/28 02:08:03;;;;;;;6.10;5.07;;;4.20;76.10;;;;;;5013081;28;20034;-84
2020/12/28 02:10:29;;;;;;;7.75;5.55;;;4.20;76.10;;;;;;5014792;28;20497;-85
2020/12/28 02:12:57;;;;;;;10.60;5.90;;;4.20;76.10;;;;;;4998149;28;20128;-85
2020/12/28 02:15:23;;;;;;;6.93;5.63;;;4.20;76.10;;;;;;5014594;28;20108;-85
2020/12/28 02:18:13;;;;;;;9.35;5.93;;;4.20;76.10;;;;;;5005161;28;20041;-86
2020/12/28 02:20:55;;;;;;;7.90;6.38;;;4.10;75.90;;;;;;4998422;28;20248;-84
2020/12/28 02:23:22;;;;;;;8.00;6.22;;;4.20;76.10;;;;;;5011442;28;20097;-84
2020/12/28 02:25:47;;;;;;;8.50;6.13;;;4.10;76.00;;;;;;5012882;28;20115;-82
2020/12/28 02:28:13;;;;;;;6.38;5.53;;;4.10;76.00;;;;;;5011170;28;20052;-81
2020/12/28 02:30:40;;;;;;;6.32;5.03;;;4.00;75.80;;;;;;4996192;28;20026;-82
2020/12/28 02:33:25;;;;;;;7.90;5.43;;;4.00;75.80;;;;;;5014520;28;20049;-80
2020/12/28 02:36:03;;;;;;;6.70;5.30;;;4.00;75.80;;;;;;4997291;28;20065;-84
2020/12/28 02:38:29;;;;;;;11.35;5.55;;;4.00;75.80;;;;;;4997991;28;20041;-85
2020/12/28 02:40:55;;;;;;;6.88;5.70;;;4.00;75.90;;;;;;5000585;28;20030;-85
2020/12/28 02:43:21;;;;;;;13.45;5.90;;;4.00;75.90;;;;;;5001931;28;20036;-82
2020/12/28 02:46:16;;;;;;;11.10;5.88;;;4.00;75.90;;;;;;4982927;28;20493;-84
2020/12/28 02:49:01;;;;;;;9.15;5.57;;;3.90;75.80;;;;;;5021519;28;20054;-85
2020/12/28 02:51:45;;;;;;;5.72;5.20;;;4.00;76.00;;;;;;5002196;28;20030;-86
2020/12/28 02:54:50;;;;;;;9.38;6.30;;;4.00;76.00;;;;;;4991467;28;20134;-85
2020/12/28 02:57:34;;;;;;;;;;;4.00;76.00;;;;;;4981322;28;20066;-85
2020/12/28 03:00:19;;;;;;;8.55;5.90;;;4.00;76.10;;;;;;4996711;28;20333;-84
2020/12/28 03:03:03;;;;;;;8.68;5.82;;;4.00;76.00;;;;;;5002943;28;20264;-84
2020/12/28 03:05:49;;;;;;;7.38;5.50;;;4.00;76.00;;;;;;4999420;28;20529;-82
2020/12/28 03:08:34;;;;;;;8.23;5.53;;;4.00;76.00;;;;;;5001681;28;20034;-85
2020/12/28 03:11:26;;;;;;;5.82;4.97;;;4.00;76.10;;;;;;5000330;28;20217;-84
2020/12/28 03:14:10;;;;;;;6.35;5.65;;;4.00;76.10;;;;;;5013811;28;20061;-83
2020/12/28 03:16:56;;;;;;;8.38;6.00;;;4.00;76.10;;;;;;4997424;28;20073;-83
2020/12/28 03:19:41;;;;;;;6.97;5.70;;;4.00;76.20;;;;;;5013102;28;20048;-84
2020/12/28 03:22:25;;;;;;;7.72;4.75;;;4.00;76.20;;;;;;5000296;28;20121;-83
2020/12/28 03:25:10;;;;;;;8.35;5.10;;;4.00;76.20;;;;;;4998805;28;20042;-82
2020/12/28 03:27:54;;;;;;;6.97;4.63;;;4.00;76.20;;;;;;5000298;28;20026;-82
2020/12/28 03:30:39;;;;;;;7.25;4.50;;;4.00;76.20;;;;;;5000249;28;20030;-82
2020/12/28 03:33:43;;;;;;;9.57;5.20;;;4.00;76.20;;;;;;4997542;28;20030;-84
2020/12/28 03:36:27;;;;;;;5.25;4.30;;;4.00;76.20;;;;;;4999345;28;20050;-83
2020/12/28 03:39:12;;;;;;;5.97;4.72;;;4.00;76.20;;;;;;5000086;28;20122;-82
2020/12/28 03:42:01;;;;;;;6.50;4.22;;;4.00;76.20;;;;;;4998096;28;20485;-80
2020/12/28 03:44:45;;;;;;;9.95;5.13;;;4.00;76.20;;;;;;5010160;28;20113;-81
2020/12/28 03:47:30;;;;;;;;;;;4.00;76.20;;;;;;5016123;28;20073;-84
2020/12/28 03:50:14;;;;;;;6.32;3.72;;;4.00;76.20;;;;;;5001809;28;19925;-87
2020/12/28 03:52:59;;;;;;;3.80;3.13;;;4.00;76.10;;;;;;5012316;28;20034;-83
2020/12/28 03:55:54;;;;;;;6.97;4.82;;;4.00;76.10;;;;;;4996994;28;20034;-85
2020/12/28 03:58:38;;;;;;;4.35;3.92;;;4.00;76.20;;;;;;5001610;28;20030;-85
2020/12/28 04:01:23;;;;;;;7.65;3.50;;;4.00;76.20;;;;;;5017210;28;20034;-87
2020/12/28 04:04:08;;;;;;;5.70;3.83;;;4.00;76.30;;;;;;5017413;28;20034;-87
2020/12/28 04:06:52;;;;;;;8.40;3.65;;;4.00;76.30;;;;;;5003320;28;20050;-87
2020/12/28 04:09:37;;;;;;;11.55;3.95;;;4.00;76.30;;;;;;5016014;28;20034;-84
2020/12/28 04:12:36;;;;;;;5.47;3.63;;;4.00;76.30;;;;;;5002886;28;20073;-86
2020/12/28 04:15:02;;;;;;;6.88;3.97;;;4.00;76.30;;;;;;5001751;28;20034;-85
2020/12/28 04:17:28;;;;;;;5.85;4.15;;;4.10;76.60;;;;;;5001350;28;20046;-85
2020/12/28 04:19:54;;;;;;;8.40;3.92;;;4.00;76.40;;;;;;5021877;28;20505;-84
2020/12/28 04:22:20;;;;;;;7.22;4.18;;;4.10;76.60;;;;;;5020366;28;20040;-83
2020/12/28 04:24:46;;;;;;;5.70;3.60;;;4.10;76.60;;;;;;5020699;28;20081;-84
2020/12/28 04:27:11;;;;;;;6.40;3.65;;;4.10;76.70;;;;;;5011267;28;20030;-81
2020/12/28 04:29:37;;;;;;;4.13;3.33;;;4.10;76.70;;;;;;4998466;28;20035;-82
2020/12/28 04:32:04;;;;;;;7.80;4.10;;;4.10;76.70;;;;;;5015631;28;20033;-82
2020/12/28 04:34:30;;;;;;;8.82;3.50;;;4.10;76.70;;;;;;4999926;28;20026;-82
2020/12/28 04:36:56;;;;;;;4.13;3.67;;;4.20;76.90;;;;;;5000816;28;20061;-82
2020/12/28 04:39:22;;;;;;;6.28;3.72;;;4.20;76.90;;;;;;5011378;28;20038;-81
2020/12/28 04:41:48;;;;;;;6.25;3.35;;;4.20;76.90;;;;;;5016013;28;20048;-80
2020/12/28 04:44:14;;;;;;;6.35;3.70;;;4.20;76.90;;;;;;5032565;28;20069;-80
2020/12/28 04:46:41;;;;;;;7.82;3.50;;;4.20;76.90;;;;;;5020041;28;20044;-80
2020/12/28 04:49:07;;;;;;;9.50;3.53;;;4.30;77.10;;;;;;5032036;28;20121;-82
2020/12/28 04:51:34;;;;;;;6.15;3.17;;;4.30;77.10;;;;;;5016484;28;20058;-80
2020/12/28 04:54:00;;;;;;;6.88;3.13;;;4.30;77.10;;;;;;5021629;28;20025;-86
2020/12/28 04:56:26;;;;;;;5.20;3.03;;;4.30;77.00;;;;;;5021948;28;20524;-87
2020/12/28 04:58:52;;;;;;;6.40;3.33;;;4.40;77.20;;;;;;5019683;28;20037;-81
2020/12/28 05:01:18;;;;;;;4.63;3.15;;;4.30;77.00;;;;;;5018185;28;20033;-81
2020/12/28 05:03:44;;;;;;;8.90;3.35;;;4.40;77.10;;;;;;5017479;28;20106;-81
2020/12/28 05:06:10;;;;;;;6.78;2.90;;;4.40;77.10;;;;;;5016605;28;20052;-81
2020/12/28 05:08:43;;;;;;;4.80;2.92;;;4.40;77.10;;;;;;5019016;28;20034;-83
2020/12/28 05:11:11;;;;;;;4.85;2.95;;;4.40;77.00;;;;;;5024772;28;20081;-84
2020/12/28 05:13:37;;;;;;;4.85;2.85;;;4.40;77.00;;;;;;5028204;28;20025;-84
2020/12/28 05:16:03;;;;;;;4.13;2.95;;;4.40;77.00;;;;;;5033081;28;20037;-84
2020/12/28 05:18:29;;;;;;;4.78;2.65;;;4.50;77.20;;;;;;5030636;28;20037;-85
2020/12/28 05:20:55;;;;;;;4.78;2.55;;;4.40;77.00;;;;;;5023795;28;20073;-87
2020/12/28 05:23:21;;;;;;;3.28;2.45;;;4.50;77.30;;;;;;5023244;28;20442;-82
2020/12/28 05:25:50;;;;;;;6.78;3.20;;;4.40;77.10;;;;;;5036107;28;20573;-83
2020/12/28 05:28:25;;;;;;;3.33;2.67;;;4.50;77.30;;;;;;5036626;28;20183;-84
2020/12/28 05:30:51;;;;;;;7.93;3.30;;;4.40;77.10;;;;;;5020067;28;20034;-83
2020/12/28 05:33:18;;;;;;;3.28;2.60;;;4.40;77.20;;;;;;5021658;28;20401;-83
2020/12/28 05:35:45;;;;;;;3.40;2.55;;;4.40;77.20;;;;;;5022318;28;20049;-84
2020/12/28 05:38:13;;;;;;;3.55;2.92;;;4.40;77.00;;;;;;5037316;28;20025;-82
2020/12/28 05:40:40;;;;;;;4.13;2.75;;;4.40;77.30;;;;;;5021593;28;20125;-85
2020/12/28 05:43:07;;;;;;;6.05;2.80;;;4.40;77.30;;;;;;5019947;28;20022;-82
2020/12/28 05:45:33;;;;;;;3.30;2.28;;;4.40;77.30;;;;;;5021684;28;20042;-84
2020/12/28 05:48:01;;;;;;;6.47;2.67;;;4.40;77.30;;;;;;5011639;28;20102;-84
2020/12/28 05:50:30;;;;;;;5.63;2.65;;;4.40;77.30;;;;;;4981007;28;20191;-83
2020/12/28 05:53:01;;;;;;;5.50;2.85;;;4.40;77.40;;;;;;5009864;28;20486;-87
2020/12/28 05:55:29;;;;;;;16.83;2.88;;;4.40;77.40;;;;;;4999902;28;20034;-81
2020/12/28 05:57:57;;;;;;;3.67;2.08;;;4.40;77.40;;;;;;5004466;28;20106;-87
2020/12/28 06:00:23;;;;;;;3.28;2.30;;;4.40;77.40;;;;;;5006701;28;20424;-86
2020/12/28 06:02:50;;;;;;;6.07;2.35;;;4.40;77.40;;;;;;5007982;28;20026;-85
2020/12/28 06:05:18;;;;;;;3.92;1.85;;;4.40;77.40;;;;;;5009414;28;20056;-82
2020/12/28 06:07:45;;;;;;;4.53;2.00;;;4.40;77.40;;;;;;5010560;28;20033;-82
2020/12/28 06:10:12;;;;;;;7.22;2.63;;;4.40;77.40;;;;;;5013251;28;20482;-82
2020/12/28 06:12:39;;;;;;;4.32;2.17;;;4.40;77.40;;;;;;4997093;28;20030;-84
2020/12/28 06:15:25;;;;;;;4.88;1.80;;;4.50;77.50;;;;;;5017243;28;20040;-82
2020/12/28 06:17:51;;;;;;;3.17;1.98;;;4.50;77.60;;;;;;4983550;28;20429;-83
2020/12/28 06:20:17;;;;;;;3.90;2.35;;;4.50;77.50;;;;;;5014708;28;20033;-82
2020/12/28 06:22:44;;;;;;;2.75;2.35;;;4.50;77.50;;;;;;5012842;28;20026;-83
2020/12/28 06:25:16;;;;;;;5.00;1.88;;;4.50;77.50;;;;;;5011601;28;20230;-82
2020/12/28 06:27:45;;;;;;;5.97;2.65;;;4.50;77.50;;;;;;5012798;28;20045;-82
2020/12/28 06:30:19;;;;;;;2.92;2.15;;;4.50;77.60;;;;;;4996656;28;20405;-81
2020/12/28 06:32:49;;;;;;;3.90;2.00;;;4.50;77.50;;;;;;5013676;28;20032;-82
2020/12/28 06:35:17;;;;;;;2.65;1.77;;;4.50;77.50;;;;;;4994052;28;20034;-81
2020/12/28 06:37:53;;;;;;;3.10;1.70;;;4.50;77.50;;;;;;5010201;28;20037;-82
2020/12/28 06:40:44;;;;;;;4.07;1.90;;;4.50;77.60;;;;;;5012063;28;20030;-81
2020/12/28 06:43:21;;;;;;;2.05;1.80;;;4.40;77.40;;;;;;5005731;28;20037;-80
2020/12/28 06:45:49;;;;;;;2.17;1.60;;;4.50;77.80;;;;;;5006744;28;20042;-80
2020/12/28 06:48:25;;;;;;;3.58;2.20;;;4.40;77.40;;;;;;5011516;28;20022;-83
2020/12/28 06:51:04;;;;;;;2.40;2.05;;;4.40;77.40;;;;;;5006723;28;20042;-81
2020/12/28 06:53:30;;;;;;;3.20;2.10;;;4.40;77.40;;;;;;5013883;28;20489;-83
2020/12/28 06:56:06;;;;;;;4.43;1.75;;;4.40;77.50;;;;;;4996114;28;20041;-87
2020/12/28 06:58:32;;;;;;;2.60;1.60;;;4.40;77.50;;;;;;5019537;28;20462;-86
2020/12/28 07:00:58;;;;;;;2.25;1.63;;;4.40;77.50;;;;;;5001875;28;20033;-86
2020/12/28 07:03:24;;;;;;;4.18;2.03;;;4.40;77.50;;;;;;4999453;28;20034;-82
2020/12/28 07:05:58;;;;;;;3.50;2.22;;;4.40;77.50;;;;;;5014467;28;20037;-84
2020/12/28 07:08:25;;;;;;;2.00;1.83;;;4.40;77.50;;;;;;5015578;28;20034;-90
2020/12/28 07:11:00;;;;;;;2.70;1.55;;;4.40;77.50;;;;;;5013042;28;20120;-82
2020/12/28 07:13:26;;;;;;;3.80;1.65;;;4.30;77.30;;;;;;5014312;28;20129;-81
2020/12/28 07:16:00;;;;;;;5.32;2.33;;;4.30;77.30;;;;;;5009336;28;20026;-81
2020/12/28 07:18:26;;;;;;;2.13;1.80;;;4.30;77.30;;;;;;5003980;28;20034;-81
2020/12/28 07:20:59;;;;;;;1.77;1.52;;;4.20;77.20;;;;;;4999326;28;20092;-87
2020/12/28 07:23:26;;;;;;;4.00;2.00;;;4.20;77.20;;;;;;4979155;28;20038;-82
2020/12/28 07:26:11;;;;;;;4.70;2.15;;;4.20;77.20;;;;;;5006000;28;20041;-80
2020/12/28 07:28:39;;;;;;;4.22;2.05;;;4.20;77.30;;;;;;5002480;28;20046;-78
2020/12/28 07:31:07;;;;;;;4.55;1.85;;;4.20;77.30;;;;;;5000297;28;20030;-79
2020/12/28 07:33:34;;;;;;;3.85;1.92;;;4.10;77.10;;;;;;5004043;28;20030;-79
2020/12/28 07:36:08;;;;;;;5.68;2.28;;;4.10;77.20;;;;;;4993219;28;20450;-79
2020/12/28 07:38:35;;;;;;;4.10;2.30;;;4.10;77.20;;;;;;5002643;28;20449;-79
2020/12/28 07:41:03;;;;;;;3.58;2.50;;;4.10;77.30;;;;;;4997374;28;20072;-78
2020/12/28 07:43:29;;;;;;;3.10;2.65;;;4.00;77.20;;;;;;5012398;28;20466;-80
2020/12/28 07:46:16;;;;;;;2.50;2.20;;;4.00;77.20;;;;;;4999066;28;20539;-79
2020/12/28 07:48:43;;;;;;;4.43;1.90;;;4.00;77.20;;;;;;4997844;28;20390;-79
2020/12/28 07:51:13;;;;;;;4.15;2.00;;;4.00;77.20;;;;;;5007927;28;20048;-79
2020/12/28 07:53:43;;;;;;;3.03;2.33;;;4.00;77.30;;;;;;4989572;28;20034;-79
2020/12/28 07:56:21;;;;;;;2.95;1.85;;;4.00;77.30;;;;;;5006094;28;20326;-80
2020/12/28 07:59:17;;;;;;;7.50;2.15;;;4.00;77.30;;;;;;5007569;28;20030;-81
2020/12/28 08:01:50;;;;;;;3.03;2.25;;;4.00;77.30;;;;;;4998596;28;20045;-86
2020/12/28 08:04:22;;;;;;;3.43;2.47;;;4.00;77.30;;;;;;4999529;28;20033;-84
2020/12/28 08:06:49;;;;;;;4.30;2.30;;;4.00;77.30;;;;;;5018109;28;20299;-84
2020/12/28 08:09:21;;;;;;;3.42;2.30;;;4.00;77.30;;;;;;5017272;28;20034;-87
2020/12/28 08:11:59;;;;;;;4.15;2.10;;;4.00;77.30;;;;;;5015181;28;20480;-82
2020/12/28 08:14:26;;;;;;;3.53;2.33;;;4.00;77.30;;;;;;5012238;28;20041;-86
2020/12/28 08:16:52;;;;;;;2.25;2.00;;;4.00;77.30;;;;;;5006043;28;20065;-84
2020/12/28 08:19:28;;;;;;;3.58;2.55;;;4.00;77.30;;;;;;4998833;28;20026;-81
2020/12/28 08:21:54;;;;;;;2.60;2.40;;;4.00;77.30;;;;;;4981594;28;20045;-86
2020/12/28 08:24:22;;;;;;;4.43;2.40;;;4.10;77.50;;;;;;5016684;28;20027;-89
2020/12/28 08:26:49;;;;;;;2.92;2.38;;;4.10;77.40;;;;;;5021474;28;20504;-85
2020/12/28 08:29:16;;;;;;;3.30;2.67;;;4.10;77.40;;;;;;5020265;28;20049;-86
2020/12/28 08:31:42;;;;;;;3.92;3.05;;;4.10;77.40;;;;;;5011612;28;20034;-88
2020/12/28 08:34:09;;;;;;;4.78;2.75;;;4.10;77.50;;;;;;5012047;28;20125;-87
2020/12/28 08:36:41;;;;;;;3.55;2.22;;;4.10;77.40;;;;;;5014166;28;20034;-85
2020/12/28 08:39:21;;;;;;;5.72;2.25;;;4.10;77.40;;;;;;5001813;28;20031;-79
2020/12/28 08:41:56;;;;;;;3.78;2.47;;;4.10;77.50;;;;;;4993254;28;20034;-81
2020/12/28 08:44:36;;;;;;;2.30;2.10;;;4.10;77.40;;;;;;5005917;28;20041;-84
2020/12/28 08:47:13;;;;;;;2.60;2.17;;;4.20;77.60;;;;;;5021940;28;20375;-82
2020/12/28 08:49:45;;;;;;;2.67;2.10;;;4.20;77.60;;;;;;5009595;28;20302;-83
2020/12/28 08:52:17;;;;;;;3.10;2.00;;;4.20;77.50;;;;;;5004929;28;20092;-82
2020/12/28 08:54:51;;;;;;;2.25;2.05;;;4.30;77.60;;;;;;5011654;28;20030;-84
2020/12/28 08:57:30;;;;;;;2.33;1.85;;;4.20;77.50;;;;;;5014602;28;20034;-84
2020/12/28 08:59:58;;;;;;;2.97;1.90;;;4.30;77.60;;;;;;4998769;28;20078;-88
2020/12/28 09:02:26;;;;;;;2.28;2.08;;;4.30;77.60;;;;;;4993794;28;20030;-86
2020/12/28 09:04:53;;;;;;;8.38;2.53;;;4.30;77.60;;;;;;4999148;28;20372;-88
2020/12/28 09:07:20;;;;;;;3.33;2.17;;;4.30;77.50;;;;;;5005952;28;20102;-88
2020/12/28 09:09:48;;;;;;;4.18;2.63;;;4.30;77.50;;;;;;4998928;28;20440;-90
2020/12/28 09:12:15;;;;;;;2.00;1.85;;;4.40;77.60;;;;;;5008138;28;20619;-86
2020/12/28 09:14:41;;;;;;;4.90;2.50;;;4.40;77.60;;;;;;4990418;28;20030;-86
2020/12/28 09:17:07;;;;;;;5.65;2.60;;;4.40;77.70;;;;;;4992362;28;20097;-83
2020/12/28 09:19:34;;;;;;;2.08;1.88;;;4.50;77.90;;;;;;5008928;28;20029;-85
2020/12/28 09:22:00;;;;;;;8.25;2.40;;;4.50;77.90;;;;;;5009262;28;20032;-81
2020/12/28 09:24:26;;;;;;;2.90;2.38;;;4.60;78.00;;;;;;5001610;28;20038;-84
2020/12/28 09:26:57;;;;;;;5.13;2.45;;;4.60;78.00;;;;;;5007124;28;20034;-85
2020/12/28 09:29:24;;;;;;;2.35;2.20;;;4.70;78.20;;;;;;5006243;28;20571;-83
2020/12/28 09:31:50;;;;;;;3.85;2.47;;;4.80;78.20;;;;;;5005313;28;20030;-83
2020/12/28 09:34:16;;;;;;;8.23;3.03;;;4.80;78.20;;;;;;5007862;28;20026;-84
2020/12/28 09:36:42;;;;;;;5.50;2.58;;;4.80;78.20;;;;;;4995870;28;20496;-85
2020/12/28 09:39:09;;;;;;;4.95;2.58;;;4.90;78.30;;;;;;5010135;28;20030;-86
2020/12/28 09:41:35;;;;;;;3.83;2.75;;;5.00;78.50;;;;;;4996370;28;20034;-87
2020/12/28 09:44:01;;;;;;;8.02;2.97;;;5.00;78.50;;;;;;5011752;28;20101;-87
2020/12/28 09:46:27;;;;;;;3.50;2.70;;;5.10;78.60;;;;;;5003010;28;20389;-91
2020/12/28 09:48:53;;;;;;;13.73;3.08;;;5.10;78.60;;;;;;5008765;28;20445;-91
2020/12/28 09:51:19;;;;;;;5.55;2.45;;;5.20;78.80;;;;;;5003392;28;20046;-91
2020/12/28 09:53:45;;;;;;;3.95;2.83;;;5.30;78.90;;;;;;4990608;28;20444;-86
2020/12/28 09:56:12;;;;;;;2.85;2.47;;;5.30;78.90;;;;;;4996523;28;20123;-86
2020/12/28 09:58:38;;;;;;;5.10;2.78;;;5.30;78.80;;;;;;4988063;28;20050;-87
2020/12/28 10:01:09;;;;;;;5.68;2.58;;;5.40;79.00;;;;;;4997506;28;20117;-85
2020/12/28 10:03:37;;;;;;;5.10;2.67;;;5.40;79.00;;;;;;5030870;28;20073;-88
2020/12/28 10:06:30;;;;;;;3.90;2.67;;;5.50;79.10;;;;;;4990689;28;20069;-88
2020/12/28 10:08:49;;;;;;;7.30;6.45;;;5.50;79.10;;;;;;5007441;28;20036;-89
2020/12/28 10:11:15;;;;;;;10.18;7.93;;;5.60;79.20;;;;;;4995382;28;20046;-82
2020/12/28 10:13:41;;;;;;;7.57;5.55;;;5.60;79.10;;;;;;4998316;28;20452;-79
2020/12/28 10:16:07;;;;;;;12.00;6.82;;;5.60;79.10;;;;;;4994331;28;20038;-77
2020/12/28 10:18:36;;;;;;;6.85;6.15;;;5.70;79.30;;;;;;5008742;28;20048;-78
2020/12/28 10:21:02;;;;;;;7.07;6.38;;;5.70;79.30;;;;;;4991300;28;20379;-78
2020/12/28 10:23:28;;;;;;;11.00;6.95;;;5.80;79.50;;;;;;5001349;28;20036;-80
2020/12/28 10:25:54;;;;;;;10.35;7.25;;;5.80;79.40;;;;;;5019392;28;20444;-81
2020/12/28 10:28:20;;;;;;;9.48;6.75;;;5.80;79.40;;;;;;5005028;28;20042;-82
2020/12/28 10:30:46;;;;;;;10.15;6.55;;;5.80;79.30;;;;;;5008656;28;20042;-82
2020/12/28 10:33:11;;;;;;;6.35;5.25;;;5.80;79.20;;;;;;5004936;28;20033;-84
2020/12/28 10:35:38;;;;;;;7.10;6.38;;;5.90;79.40;;;;;;5010402;28;20345;-82
2020/12/28 10:38:04;;;;;;;10.02;7.43;;;6.00;79.70;;;;;;5005286;28;20096;-80
2020/12/28 10:40:29;;;;;;;15.40;6.60;;;6.00;79.70;;;;;;5005803;28;20030;-83
2020/12/28 10:42:55;;;;;;;10.82;7.20;;;6.00;79.70;;;;;;5005280;28;20220;-82
2020/12/28 10:45:21;;;;;;;7.55;6.75;;;6.10;79.90;;;;;;4987131;28;20044;-80
2020/12/28 10:47:47;;;;;;;8.60;6.68;;;6.10;79.80;;;;;;4988876;28;20034;-83
2020/12/28 10:50:13;;;;;;;8.13;6.85;;;6.20;79.90;;;;;;5007732;28;20447;-84
2020/12/28 10:52:39;;;;;;;8.95;7.00;;;6.20;79.80;;;;;;5001291;28;20060;-83
2020/12/28 10:55:05;;;;;;;10.32;7.03;;;6.20;79.80;;;;;;5010406;28;20056;-83
2020/12/28 10:57:31;;;;;;;9.00;6.93;;;6.30;79.90;;;;;;4993825;28;20033;-84
2020/12/28 10:59:57;;;;;;;12.00;6.82;;;6.30;79.80;;;;;;4995255;28;20121;-83
2020/12/28 11:02:23;;;;;;;7.85;5.82;;;6.30;79.80;;;;;;5012576;28;20026;-83
2020/12/28 11:04:49;;;;;;;6.97;6.35;;;6.40;79.90;;;;;;5014135;28;20389;-84
2020/12/28 11:07:15;;;;;;;9.82;6.75;;;6.40;80.00;;;;;;5011494;28;20064;-82
2020/12/28 11:09:41;;;;;;;8.57;6.63;;;6.40;80.00;;;;;;4980987;28;20033;-84
2020/12/28 11:12:07;;;;;;;8.05;6.85;;;6.50;80.20;;;;;;5021930;28;20048;-84
2020/12/28 11:14:33;;;;;;;6.63;5.95;;;6.60;80.30;;;;;;5000009;28;20141;-84
2020/12/28 11:17:03;;;;;;;8.23;6.78;;;6.60;80.20;;;;;;5002728;28;20033;-85
2020/12/28 11:19:30;;;;;;;9.23;6.93;;;6.70;80.30;;;;;;5019453;28;20315;-85
2020/12/28 11:21:56;;;;;;;11.10;6.57;;;6.80;80.30;;;;;;5015877;28;20034;-86
2020/12/28 11:24:22;;;;;;;7.57;5.95;;;6.90;80.40;;;;;;5016035;28;20098;-85
2020/12/28 11:26:48;;;;;;;8.60;6.30;;;6.90;80.40;;;;;;5015461;28;20052;-85
2020/12/28 11:29:14;;;;;;;6.50;5.90;;;7.00;80.40;;;;;;4997526;28;20077;-84
2020/12/28 11:31:40;;;;;;;8.93;6.10;;;7.10;80.50;;;;;;5016062;28;20037;-88
2020/12/28 11:34:06;;;;;;;7.18;6.10;;;7.10;80.50;;;;;;5018365;28;20099;-87
2020/12/28 11:36:32;;;;;;;6.65;5.57;;;7.10;80.40;;;;;;5015696;28;20033;-84
2020/12/28 11:38:58;;;;;;;6.80;6.10;;;7.20;80.50;;;;;;5027821;28;20037;-83
2020/12/28 11:41:26;;;;;;;7.95;6.22;;;7.30;80.60;;;;;;4993399;28;20030;-86
2020/12/28 11:43:52;;;;;;;9.40;5.72;;;7.30;80.50;;;;;;4996316;28;20374;-84
2020/12/28 11:46:19;;;;;;;6.95;6.00;;;7.40;80.60;;;;;;5012970;28;20034;-84
2020/12/28 11:48:46;;;;;;;6.47;5.05;;;7.40;80.40;;;;;;5011237;28;20045;-84
2020/12/28 11:51:12;;;;;;;5.45;4.95;;;7.50;80.50;;;;;;5008680;28;20116;-83
2020/12/28 11:53:38;;;;;;;7.75;5.60;;;7.50;80.40;;;;;;5006538;28;20425;-83
2020/12/28 11:56:05;;;;;;;6.70;5.00;;;7.50;80.80;;;;;;4993622;28;20034;-83
2020/12/28 11:58:36;;;;;;;5.97;4.50;;;7.50;80.20;;;;;;5012165;28;20034;-85
2020/12/28 12:01:04;;;;;;;6.93;5.40;;;7.40;80.00;;;;;;5014955;28;20034;-85
2020/12/28 12:03:32;;;;;;;5.68;4.95;;;7.40;80.00;;;;;;5005920;28;20108;-87
2020/12/28 12:05:59;;;;;;;7.15;6.45;;;7.30;79.80;;;;;;5009972;28;20033;-85
2020/12/28 12:08:26;;;;;;;7.97;7.22;;;7.30;79.90;;;;;;5002628;28;20374;-87
2020/12/28 12:10:52;;;;;;;8.23;7.32;;;7.30;80.00;;;;;;5017252;28;20053;-86
2020/12/28 12:13:19;;;;;;;8.13;6.80;;;7.30;80.10;;;;;;5015919;28;20057;-86
2020/12/28 12:15:46;;;;;;;8.73;6.43;;;7.20;79.80;;;;;;5014768;28;20080;-83
2020/12/28 12:18:12;;;;;;;6.63;5.97;;;7.20;79.90;;;;;;5012905;28;20033;-88
2020/12/28 12:20:39;;;;;;;7.47;6.60;;;7.20;79.90;;;;;;4999426;28;20042;-86
2020/12/28 12:23:05;;;;;;;7.15;6.45;;;7.10;79.70;;;;;;4998563;28;20045;-86
2020/12/28 12:25:32;;;;;;;8.40;6.88;;;7.10;79.80;;;;;;5015181;28;20042;-87
2020/12/28 12:27:58;;;;;;;9.15;6.13;;;7.10;79.80;;;;;;5015278;28;20029;-88
2020/12/28 12:30:24;;;;;;;6.88;5.85;;;7.00;79.60;;;;;;5013693;28;20059;-89
2020/12/28 12:32:50;;;;;;;6.45;5.47;;;7.00;79.60;;;;;;5010549;28;20301;-80
2020/12/28 12:35:16;;;;;;;5.85;5.30;;;7.00;79.70;;;;;;4990607;28;20036;-80
2020/12/28 12:37:42;;;;;;;6.68;5.68;;;6.90;79.50;;;;;;4990162;28;20041;-80
2020/12/28 12:40:08;;;;;;;5.53;5.00;;;6.90;79.50;;;;;;5007800;28;20030;-80
2020/12/28 12:42:34;;;;;;;5.88;5.22;;;6.90;79.50;;;;;;5001287;28;20056;-80
2020/12/28 12:45:00;;;;;;;6.50;5.40;;;6.90;79.50;;;;;;5006115;28;20186;-80
2020/12/28 12:47:26;;;;;;;6.95;5.45;;;6.80;79.30;;;;;;4989649;28;20026;-81
2020/12/28 12:49:52;;;;;;;6.03;4.85;;;6.80;79.30;;;;;;4990237;28;20046;-80
2020/12/28 12:52:20;;;;;;;5.20;4.75;;;6.80;79.30;;;;;;4992831;28;20061;-80
2020/12/28 12:54:47;;;;;;;5.57;4.63;;;6.80;79.30;;;;;;4992579;28;20068;-81
2020/12/28 12:57:13;;;;;;;5.20;4.40;;;6.80;79.30;;;;;;5018214;28;20644;-81
2020/12/28 13:02:25;;;;;;;4.70;4.20;;;6.70;79.10;;;;;;5022200;28;20569;-78
2020/12/28 13:04:51;;;;;;;4.70;4.18;;;6.70;79.10;;;;;;5022547;28;20551;-80
2020/12/28 13:07:17;;;;;;;4.10;3.80;;;6.70;79.00;;;;;;4990728;28;20030;-79
2020/12/28 13:09:43;;;;;;;4.63;3.72;;;6.70;79.00;;;;;;5005392;28;20061;-79
2020/12/28 13:12:10;;;;;;;4.70;3.63;;;6.70;79.00;;;;;;5004557;28;20037;-79
2020/12/28 13:14:35;;;;;;;4.03;3.65;;;6.70;79.00;;;;;;5006646;28;20109;-80
2020/12/28 13:17:02;;;;;;;3.40;3.10;;;6.70;78.90;;;;;;5007265;28;20144;-81